createdAt,value
2019-01-11T00:02:02.406Z,7.53
2019-01-11T00:04:28.867Z,9.43
2019-01-11T00:06:55.161Z,10.10
2019-01-11T00:09:21.516Z,9.70
2019-01-11T00:11:47.840Z,8.17
2019-01-11T00:14:14.426Z,9.43
2019-01-11T00:16:40.715Z,8.97
2019-01-11T00:19:09.493Z,7.27
2019-01-11T00:21:36.424Z,10.00
2019-01-11T00:24:04.062Z,7.97
2019-01-11T00:26:30.565Z,11.50
2019-01-11T00:28:56.913Z,10.80
2019-01-11T00:31:24.372Z,8.63
2019-01-11T00:33:50.672Z,9.50
2019-01-11T00:36:17.145Z,9.43
2019-01-11T00:38:43.523Z,8.43
2019-01-11T00:41:10.027Z,9.83
2019-01-11T00:43:36.466Z,8.77
2019-01-11T00:46:02.909Z,12.17
2019-01-11T00:48:29.236Z,11.60
2019-01-11T00:50:55.536Z,11.27
2019-01-11T00:53:21.888Z,13.47
2019-01-11T00:55:48.217Z,10.57
2019-01-11T00:58:17.753Z,11.13
2019-01-11T01:00:44.027Z,11.03
2019-01-11T01:03:10.387Z,12.43
2019-01-11T01:05:36.934Z,8.70
2019-01-11T01:08:03.564Z,11.17
2019-01-11T01:10:29.859Z,10.03
2019-01-11T01:12:56.144Z,9.30
2019-01-11T01:15:22.528Z,7.47
2019-01-11T01:17:49.430Z,8.97
2019-01-11T01:20:29.050Z,8.30
2019-01-11T01:22:55.816Z,9.53
2019-01-11T01:25:22.193Z,11.53
2019-01-11T01:27:48.701Z,10.90
2019-01-11T01:30:15.504Z,9.53
2019-01-11T01:32:41.890Z,8.17
2019-01-11T01:35:08.304Z,8.20
2019-01-11T01:37:34.885Z,10.53
2019-01-11T01:40:01.221Z,9.50
2019-01-11T01:42:27.626Z,10.17
2019-01-11T01:44:54.067Z,7.23
2019-01-11T01:47:20.440Z,7.83
2019-01-11T01:49:46.961Z,8.77
2019-01-11T01:52:14.533Z,8.13
2019-01-11T01:54:41.294Z,9.77
2019-01-11T01:57:07.832Z,7.87
2019-01-11T01:59:34.224Z,9.30
2019-01-11T02:02:01.064Z,7.03
2019-01-11T02:04:27.534Z,7.90
2019-01-11T02:06:54.112Z,8.50
2019-01-11T02:09:20.576Z,9.77
2019-01-11T02:11:46.952Z,8.27
2019-01-11T02:14:13.408Z,8.10
2019-01-11T02:16:39.909Z,7.73
2019-01-11T02:19:06.824Z,8.97
2019-01-11T02:21:33.226Z,8.43
2019-01-11T02:23:59.537Z,9.57
2019-01-11T02:26:26.020Z,9.83
2019-01-11T02:28:52.409Z,8.37
2019-01-11T02:31:18.764Z,10.67
2019-01-11T02:33:45.385Z,10.83
2019-01-11T02:36:11.767Z,12.50
2019-01-11T02:38:38.253Z,8.77
2019-01-11T02:41:04.617Z,9.83
2019-01-11T02:43:31.233Z,14.57
2019-01-11T02:45:57.656Z,9.10
2019-01-11T02:48:23.945Z,10.33
2019-01-11T02:50:50.695Z,11.87
2019-01-11T02:53:17.167Z,9.40
2019-01-11T02:55:43.615Z,8.47
2019-01-11T02:58:10.335Z,11.60
2019-01-11T03:00:39.829Z,11.77
2019-01-11T03:03:06.407Z,9.70
2019-01-11T03:05:32.792Z,10.37
2019-01-11T03:07:59.072Z,9.53
2019-01-11T03:10:25.436Z,11.10
2019-01-11T03:12:51.712Z,8.83
2019-01-11T03:15:18.293Z,10.10
2019-01-11T03:17:44.781Z,9.80
2019-01-11T03:20:11.713Z,12.00
2019-01-11T03:22:38.106Z,11.00
2019-01-11T03:25:04.769Z,9.57
2019-01-11T03:27:31.094Z,10.97
2019-01-11T03:29:58.500Z,11.43
2019-01-11T03:32:31.027Z,11.60
2019-01-11T03:35:09.711Z,10.73
2019-01-11T03:37:36.062Z,12.63
2019-01-11T03:40:03.297Z,10.70
2019-01-11T03:42:29.693Z,10.43
2019-01-11T03:44:56.059Z,12.90
2019-01-11T03:47:22.398Z,14.93
2019-01-11T03:49:54.772Z,10.90
2019-01-11T03:52:17.073Z,13.87
2019-01-11T03:54:43.433Z,11.30
2019-01-11T03:57:09.639Z,10.30
2019-01-11T03:59:35.936Z,13.57
2019-01-11T04:02:02.265Z,11.37
2019-01-11T04:04:28.621Z,13.07
2019-01-11T04:06:54.945Z,11.20
2019-01-11T04:09:21.154Z,10.13
2019-01-11T04:11:47.460Z,11.63
2019-01-11T04:14:13.999Z,13.63
2019-01-11T04:16:40.292Z,16.03
2019-01-11T04:19:11.393Z,9.43
2019-01-11T04:21:37.857Z,13.33
2019-01-11T04:24:04.204Z,12.63
2019-01-11T04:26:30.745Z,13.57
2019-01-11T04:28:56.983Z,12.83
2019-01-11T04:31:23.438Z,12.40
2019-01-11T04:33:49.893Z,13.83
2019-01-11T04:36:16.264Z,13.37
2019-01-11T04:38:42.922Z,14.50
2019-01-11T04:41:09.517Z,13.07
2019-01-11T04:43:35.867Z,12.97
2019-01-11T04:46:02.227Z,16.33
2019-01-11T04:48:28.724Z,14.50
2019-01-11T04:50:55.342Z,14.90
2019-01-11T04:53:23.700Z,14.80
2019-01-11T04:55:51.001Z,19.03
2019-01-11T04:58:17.410Z,16.07
2019-01-11T05:00:43.751Z,16.93
2019-01-11T05:03:10.020Z,15.40
2019-01-11T05:05:36.439Z,17.47
2019-01-11T05:08:02.832Z,14.80
2019-01-11T05:10:29.277Z,16.97
2019-01-11T05:12:57.478Z,16.20
2019-01-11T05:15:23.805Z,15.73
2019-01-11T05:17:50.213Z,14.10
2019-01-11T05:20:17.265Z,15.90
2019-01-11T05:22:44.164Z,17.10
2019-01-11T05:25:10.502Z,16.60
2019-01-11T05:27:36.737Z,16.53
2019-01-11T05:30:04.919Z,16.87
2019-01-11T05:32:31.248Z,16.87
2019-01-11T05:34:57.877Z,15.43
2019-01-11T05:37:24.442Z,15.57
2019-01-11T05:39:50.664Z,16.23
2019-01-11T05:42:22.298Z,15.67
2019-01-11T05:44:48.629Z,16.97
2019-01-11T05:47:14.941Z,15.37
2019-01-11T05:49:41.200Z,16.07
2019-01-11T05:52:07.393Z,16.43
2019-01-11T05:54:33.733Z,17.33
2019-01-11T05:57:03.022Z,18.40
2019-01-11T05:59:29.313Z,15.20
2019-01-11T06:01:55.788Z,16.03
2019-01-11T06:04:43.043Z,14.73
2019-01-11T06:07:27.168Z,15.60
2019-01-11T06:09:53.888Z,13.60
2019-01-11T06:12:20.137Z,13.53
2019-01-11T06:14:46.685Z,13.07
2019-01-11T06:17:17.418Z,16.50
2019-01-11T06:19:43.916Z,13.50
2019-01-11T06:22:10.265Z,14.53
2019-01-11T06:24:36.655Z,13.30
2019-01-11T06:27:06.342Z,13.27
2019-01-11T06:29:32.671Z,11.33
2019-01-11T06:31:59.109Z,12.60
2019-01-11T06:34:26.003Z,12.63
2019-01-11T06:36:53.414Z,12.67
2019-01-11T06:39:19.781Z,11.70
2019-01-11T06:41:52.590Z,12.57
2019-01-11T06:44:19.140Z,13.00
2019-01-11T06:46:45.771Z,14.27
2019-01-11T06:49:16.738Z,12.50
2019-01-11T06:51:44.552Z,11.83
2019-01-11T06:54:12.052Z,13.80
2019-01-11T06:56:40.778Z,13.03
2019-01-11T06:59:09.523Z,14.13
2019-01-11T07:01:36.161Z,14.47
2019-01-11T07:04:02.768Z,13.27
2019-01-11T07:06:29.578Z,15.40
2019-01-11T07:08:57.474Z,13.80
2019-01-11T07:11:25.139Z,15.07
2019-01-11T07:13:52.025Z,12.43
2019-01-11T07:16:18.990Z,12.33
2019-01-11T07:18:45.702Z,12.53
2019-01-11T07:21:12.561Z,13.27
2019-01-11T07:23:39.294Z,12.53
2019-01-11T07:26:12.433Z,12.30
2019-01-11T07:28:40.107Z,13.33
2019-01-11T07:31:20.161Z,13.43
2019-01-11T07:33:46.993Z,12.07
2019-01-11T07:36:24.695Z,13.10
2019-01-11T07:38:59.168Z,13.83
2019-01-11T07:41:25.845Z,14.33
2019-01-11T07:43:52.744Z,14.07
2019-01-11T07:46:21.941Z,16.23
2019-01-11T07:48:48.300Z,15.37
2019-01-11T07:51:14.501Z,14.00
2019-01-11T07:53:46.873Z,14.37
2019-01-11T07:56:13.398Z,14.77
2019-01-11T07:58:39.972Z,13.37
2019-01-11T08:01:06.744Z,13.00
2019-01-11T08:03:33.175Z,15.63
2019-01-11T08:06:10.330Z,16.67
2019-01-11T08:08:39.920Z,16.10
2019-01-11T08:11:06.374Z,16.17
2019-01-11T08:13:32.709Z,15.50
2019-01-11T08:16:00.221Z,14.03
2019-01-11T08:18:27.001Z,14.40
2019-01-11T08:20:56.408Z,15.63
2019-01-11T08:23:24.176Z,17.77
2019-01-11T08:25:51.130Z,15.43
2019-01-11T08:28:22.660Z,18.93
2019-01-11T08:30:49.650Z,14.53
2019-01-11T08:33:18.714Z,17.03
2019-01-11T08:35:45.149Z,17.47
2019-01-11T08:38:14.042Z,17.10
2019-01-11T08:40:42.290Z,17.17
2019-01-11T08:43:16.825Z,16.20
2019-01-11T08:45:43.616Z,16.63
2019-01-11T08:48:13.738Z,16.27
2019-01-11T08:50:40.126Z,16.90
2019-01-11T08:53:06.498Z,17.60
2019-01-11T08:55:33.353Z,19.93
2019-01-11T08:58:35.965Z,20.03
2019-01-11T09:01:06.795Z,21.20
2019-01-11T09:03:42.499Z,22.17
2019-01-11T09:06:18.850Z,20.97
2019-01-11T09:12:03.557Z,20.30
2019-01-11T09:14:57.667Z,16.73
2019-01-11T09:17:25.006Z,18.40
2019-01-11T09:20:00.737Z,18.60
2019-01-11T09:22:42.090Z,17.87
2019-01-11T09:25:18.580Z,20.40
2019-01-11T09:27:58.261Z,17.20
2019-01-11T09:30:25.261Z,15.27
2019-01-11T09:32:54.029Z,17.67
2019-01-11T09:35:22.652Z,15.80
2019-01-11T09:37:49.166Z,15.07
2019-01-11T09:40:16.355Z,17.43
2019-01-11T09:42:43.950Z,14.57
2019-01-11T09:45:10.710Z,14.63
2019-01-11T09:47:37.315Z,15.20
2019-01-11T09:50:04.762Z,16.47
2019-01-11T09:52:31.239Z,15.93
2019-01-11T09:54:57.751Z,15.13
2019-01-11T09:57:24.125Z,14.87
2019-01-11T09:59:50.606Z,17.07
2019-01-11T10:02:34.770Z,15.97
2019-01-11T10:05:01.359Z,14.40
2019-01-11T10:07:28.975Z,18.17
2019-01-11T10:09:55.245Z,15.73
2019-01-11T10:12:21.796Z,15.00
2019-01-11T10:14:49.241Z,15.77
2019-01-11T10:17:15.738Z,14.20
2019-01-11T10:19:42.329Z,16.27
2019-01-11T10:22:09.143Z,14.70
2019-01-11T10:24:35.714Z,15.07
2019-01-11T10:27:02.203Z,16.10
2019-01-11T10:29:29.137Z,18.63
2019-01-11T10:31:55.655Z,14.40
2019-01-11T10:34:22.266Z,14.70
2019-01-11T10:36:48.870Z,16.13
2019-01-11T10:39:21.630Z,15.50
2019-01-11T10:41:48.104Z,15.43
2019-01-11T10:44:14.546Z,15.03
2019-01-11T10:46:48.987Z,14.73
2019-01-11T10:49:12.092Z,16.67
2019-01-11T10:51:38.902Z,17.73
2019-01-11T10:54:33.273Z,16.20
2019-01-11T10:56:59.927Z,15.90
2019-01-11T10:59:26.733Z,16.60
2019-01-11T11:01:53.413Z,14.10
2019-01-11T11:04:20.174Z,12.67
2019-01-11T11:06:47.200Z,13.27
2019-01-11T11:09:13.777Z,14.10
2019-01-11T11:11:40.394Z,14.47
2019-01-11T11:14:06.903Z,13.17
2019-01-11T11:16:33.758Z,13.60
2019-01-11T11:19:00.294Z,13.73
2019-01-11T11:21:27.088Z,12.73
2019-01-11T11:23:55.892Z,14.23
2019-01-11T11:26:22.249Z,14.30
2019-01-11T11:28:48.766Z,15.13
2019-01-11T11:31:15.330Z,15.23
2019-01-11T11:33:42.064Z,14.03
2019-01-11T11:36:08.749Z,13.53
2019-01-11T11:38:35.231Z,14.80
2019-01-11T11:41:01.879Z,15.73
2019-01-11T11:43:28.628Z,15.53
2019-01-11T11:45:55.309Z,13.30
2019-01-11T11:48:21.767Z,14.03
2019-01-11T11:50:48.074Z,14.43
2019-01-11T11:53:21.162Z,15.97
2019-01-11T11:55:47.520Z,15.87
2019-01-11T11:58:14.264Z,15.23
2019-01-11T12:00:40.867Z,16.20
2019-01-11T12:03:07.228Z,16.53
2019-01-11T12:05:33.961Z,16.83
2019-01-11T12:08:00.531Z,18.37
2019-01-11T12:10:27.472Z,15.30
2019-01-11T12:12:53.902Z,14.90
2019-01-11T12:15:20.628Z,15.67
2019-01-11T12:17:47.063Z,15.93
2019-01-11T12:20:15.935Z,17.13
2019-01-11T12:22:42.409Z,17.07
2019-01-11T12:25:09.008Z,18.90
2019-01-11T12:27:35.567Z,20.17
2019-01-11T12:30:02.099Z,17.67
2019-01-11T12:32:29.196Z,23.07
2019-01-11T12:34:55.788Z,23.57
2019-01-11T12:37:22.292Z,18.07
2019-01-11T12:39:48.835Z,20.33
2019-01-11T12:42:15.438Z,22.67
2019-01-11T12:44:41.809Z,19.60
2019-01-11T12:47:08.594Z,20.43
2019-01-11T12:49:36.819Z,18.50
2019-01-11T12:52:07.966Z,17.50
2019-01-11T12:54:39.454Z,18.90
2019-01-11T12:57:09.453Z,17.93
2019-01-11T12:59:50.567Z,19.70
2019-01-11T13:02:21.850Z,14.70
2019-01-11T13:05:00.413Z,18.03
2019-01-11T13:07:37.557Z,14.70
2019-01-11T13:10:04.611Z,13.80
2019-01-11T13:12:32.071Z,14.73
2019-01-11T13:14:58.660Z,15.23
2019-01-11T13:17:30.110Z,15.17
2019-01-11T13:20:00.598Z,13.83
2019-01-11T13:22:29.891Z,16.23
2019-01-11T13:24:56.685Z,17.67
2019-01-11T13:27:23.659Z,12.87
2019-01-11T13:29:50.279Z,14.77
2019-01-11T13:32:19.349Z,14.13
2019-01-11T13:34:48.797Z,14.40
2019-01-11T13:37:15.437Z,14.67
2019-01-11T13:40:08.161Z,14.23
2019-01-11T13:42:30.493Z,14.87
2019-01-11T13:44:56.979Z,17.57
2019-01-11T13:47:23.831Z,14.43
2019-01-11T13:49:50.603Z,14.40
2019-01-11T13:52:17.546Z,37.60
2019-01-11T13:54:44.666Z,14.40
2019-01-11T13:57:11.102Z,14.90
2019-01-11T13:59:57.138Z,16.60
2019-01-11T14:02:23.972Z,17.23
2019-01-11T14:04:50.616Z,17.83
2019-01-11T14:07:22.150Z,22.07
2019-01-11T14:09:55.083Z,18.60
2019-01-11T14:12:23.935Z,19.00
2019-01-11T14:14:54.471Z,18.60
2019-01-11T14:17:21.476Z,19.73
2019-01-11T14:19:50.184Z,18.43
2019-01-11T14:25:09.643Z,17.63
2019-01-11T14:27:36.826Z,19.87
2019-01-11T14:30:08.234Z,21.67
2019-01-11T14:32:39.313Z,18.47
2019-01-11T14:35:14.595Z,22.53
2019-01-11T14:37:46.743Z,21.77
2019-01-11T14:40:18.374Z,20.53
2019-01-11T14:42:48.011Z,19.07
2019-01-11T14:45:23.112Z,19.03
2019-01-11T14:47:56.114Z,20.27
2019-01-11T14:50:29.578Z,21.43
2019-01-11T14:53:03.257Z,20.60
2019-01-11T14:55:33.989Z,22.20
2019-01-11T14:58:09.455Z,22.07
2019-01-11T15:00:46.344Z,23.03
2019-01-11T15:03:39.059Z,20.03
2019-01-11T15:06:12.489Z,20.90
2019-01-11T15:08:56.294Z,21.30
2019-01-11T15:11:30.423Z,24.00
2019-01-11T15:13:59.541Z,20.87
2019-01-11T15:16:25.967Z,22.67
2019-01-11T15:18:52.349Z,20.97
2019-01-11T15:21:18.750Z,19.13
2019-01-11T15:23:45.074Z,18.53
2019-01-11T15:26:11.426Z,18.27
2019-01-11T15:28:37.881Z,19.23
2019-01-11T15:31:04.189Z,22.73
2019-01-11T15:33:30.560Z,18.53
2019-01-11T15:35:57.009Z,16.33
2019-01-11T15:38:24.060Z,16.50
2019-01-11T15:40:50.495Z,18.43
2019-01-11T15:43:17.030Z,18.43
2019-01-11T15:45:43.377Z,19.97
2019-01-11T15:48:14.189Z,18.10
2019-01-11T15:51:05.844Z,17.00
2019-01-11T15:53:33.040Z,18.13
2019-01-11T15:56:00.474Z,18.93
2019-01-11T15:58:27.232Z,20.53
2019-01-11T16:00:53.662Z,19.50
2019-01-11T16:03:22.901Z,19.70
2019-01-11T16:06:09.017Z,18.50
2019-01-11T16:08:37.595Z,17.97
2019-01-11T16:11:11.245Z,18.63
2019-01-11T16:14:06.433Z,17.50
2019-01-11T16:16:37.024Z,15.63
2019-01-11T16:19:04.533Z,15.87
2019-01-11T16:21:31.012Z,16.37
2019-01-11T16:23:57.489Z,13.70
2019-01-11T16:26:23.857Z,16.17
2019-01-11T16:28:50.237Z,15.47
2019-01-11T16:31:16.582Z,15.17
2019-01-11T16:33:42.997Z,16.63
2019-01-11T16:36:10.833Z,13.67
2019-01-11T16:38:37.310Z,11.77
2019-01-11T16:41:03.657Z,14.77
2019-01-11T16:43:30.309Z,13.27
2019-01-11T16:45:56.539Z,14.63
2019-01-11T16:48:22.890Z,14.17
2019-01-11T16:50:52.430Z,14.70
2019-01-11T16:53:19.228Z,12.67
2019-01-11T16:55:46.527Z,12.87
2019-01-11T16:58:13.120Z,14.10
2019-01-11T17:00:45.645Z,12.17
2019-01-11T17:03:12.012Z,11.93
2019-01-11T17:05:38.349Z,12.33
2019-01-11T17:08:04.777Z,10.13
2019-01-11T17:10:31.127Z,11.10
2019-01-11T17:12:57.474Z,10.87
2019-01-11T17:15:23.980Z,11.33
2019-01-11T17:17:50.430Z,11.73
2019-01-11T17:20:16.925Z,12.93
2019-01-11T17:22:43.474Z,10.40
2019-01-11T17:25:10.034Z,15.10
2019-01-11T17:27:36.554Z,9.93
2019-01-11T17:30:03.405Z,10.37
2019-01-11T17:32:29.915Z,9.67
2019-01-11T17:34:56.518Z,15.00
2019-01-11T17:37:23.123Z,10.67
2019-01-11T17:39:49.649Z,11.00
2019-01-11T17:42:16.249Z,12.43
2019-01-11T17:44:43.657Z,10.63
2019-01-11T17:47:10.574Z,10.73
2019-01-11T17:49:37.196Z,11.57
2019-01-11T17:52:03.840Z,10.37
2019-01-11T17:54:30.452Z,12.27
2019-01-11T17:56:57.205Z,10.40
2019-01-11T17:59:23.789Z,9.60
2019-01-11T18:01:50.634Z,8.77
2019-01-11T18:04:17.238Z,12.33
2019-01-11T18:06:43.825Z,11.80
2019-01-11T18:09:10.495Z,9.70
2019-01-11T18:11:37.251Z,9.77
2019-01-11T18:14:03.937Z,9.60
2019-01-11T18:16:31.717Z,11.57
2019-01-11T18:19:08.504Z,9.20
2019-01-11T18:21:35.574Z,9.93
2019-01-11T18:24:02.401Z,8.70
2019-01-11T18:26:32.708Z,14.87
2019-01-11T18:29:00.640Z,8.30
2019-01-11T18:31:27.348Z,10.23
2019-01-11T18:33:56.212Z,10.70
2019-01-11T18:36:32.159Z,12.30
2019-01-11T18:38:58.934Z,11.47
2019-01-11T18:41:26.091Z,12.90
2019-01-11T18:43:52.681Z,13.37
2019-01-11T18:46:19.401Z,14.20
2019-01-11T18:48:45.871Z,12.73
2019-01-11T18:51:12.874Z,13.90
2019-01-11T18:53:39.594Z,12.73
2019-01-11T18:56:06.301Z,12.23
2019-01-11T18:58:32.789Z,10.97
2019-01-11T19:00:59.482Z,11.90
2019-01-11T19:03:28.661Z,11.57
2019-01-11T19:05:55.500Z,10.17
2019-01-11T19:08:24.827Z,12.07
2019-01-11T19:10:51.418Z,12.63
2019-01-11T19:13:21.399Z,12.00
2019-01-11T19:15:48.134Z,13.73
2019-01-11T19:18:14.937Z,9.83
2019-01-11T19:20:41.756Z,9.97
2019-01-11T19:23:10.769Z,10.73
2019-01-11T19:25:37.425Z,11.47
2019-01-11T19:28:03.979Z,10.47
2019-01-11T19:30:30.526Z,9.73
2019-01-11T19:32:57.188Z,9.47
2019-01-11T19:35:25.272Z,13.90
2019-01-11T19:37:52.060Z,9.57
2019-01-11T19:40:18.649Z,9.77
2019-01-11T19:42:47.510Z,9.10
2019-01-11T19:45:14.355Z,10.30
2019-01-11T19:47:40.983Z,12.20
2019-01-11T19:50:09.321Z,13.77
2019-01-11T19:52:35.917Z,10.47
2019-01-11T19:55:03.316Z,9.70
2019-01-11T19:57:29.893Z,12.13
2019-01-11T19:59:56.556Z,9.97
2019-01-11T20:02:23.082Z,10.40
2019-01-11T20:04:49.643Z,11.27
2019-01-11T20:10:29.550Z,13.33
2019-01-11T20:12:56.179Z,13.47
2019-01-11T20:15:23.011Z,12.10
2019-01-11T20:17:49.526Z,12.03
2019-01-11T20:20:15.970Z,10.93
2019-01-11T20:22:43.687Z,10.23
2019-01-11T20:25:11.557Z,11.03
2019-01-11T20:27:38.186Z,12.70
2019-01-11T20:30:05.150Z,9.97
2019-01-11T20:32:31.626Z,11.00
2019-01-11T20:34:58.095Z,9.93
2019-01-11T20:37:28.441Z,9.33
2019-01-11T20:39:54.988Z,10.20
2019-01-11T20:42:21.541Z,9.57
2019-01-11T20:44:47.919Z,10.43
2019-01-11T20:47:14.589Z,9.80
2019-01-11T20:49:41.127Z,9.03
2019-01-11T20:52:08.806Z,10.13
2019-01-11T20:54:35.325Z,8.47
2019-01-11T20:57:01.649Z,8.20
2019-01-11T20:59:28.056Z,8.27
2019-01-11T21:01:54.578Z,9.17
2019-01-11T21:04:21.090Z,9.47
2019-01-11T21:06:48.645Z,9.13
2019-01-11T21:09:15.127Z,7.87
2019-01-11T21:11:41.610Z,7.70
2019-01-11T21:14:10.742Z,8.27
2019-01-11T21:16:37.067Z,8.07
2019-01-11T21:19:03.823Z,8.83
2019-01-11T21:21:30.387Z,9.07
2019-01-11T21:23:56.838Z,8.87
2019-01-11T21:26:23.177Z,9.13
2019-01-11T21:28:49.576Z,9.60
2019-01-11T21:31:16.017Z,9.80
2019-01-11T21:33:42.368Z,10.60
2019-01-11T21:36:11.552Z,10.73
2019-01-11T21:38:37.905Z,9.43
2019-01-11T21:41:05.520Z,9.83
2019-01-11T21:43:31.889Z,9.77
2019-01-11T21:46:03.400Z,9.20
2019-01-11T21:48:26.308Z,10.10
2019-01-11T21:50:52.574Z,11.40
2019-01-11T21:53:18.968Z,9.63
2019-01-11T21:55:45.417Z,10.67
2019-01-11T21:58:11.705Z,9.93
2019-01-11T22:00:39.117Z,8.70
2019-01-11T22:03:06.441Z,10.10
2019-01-11T22:05:32.694Z,9.93
2019-01-11T22:07:59.137Z,12.23
2019-01-11T22:10:25.479Z,8.67
2019-01-11T22:12:52.241Z,11.63
2019-01-11T22:15:18.657Z,8.97
2019-01-11T22:17:45.206Z,12.43
2019-01-11T22:20:12.857Z,10.90
2019-01-11T22:22:39.324Z,8.20
2019-01-11T22:25:05.967Z,8.57
2019-01-11T22:27:32.296Z,8.90
2019-01-11T22:29:58.785Z,8.77
2019-01-11T22:32:25.113Z,9.00
2019-01-11T22:34:51.366Z,10.23
2019-01-11T22:37:17.676Z,9.00
2019-01-11T22:39:48.290Z,9.13
2019-01-11T22:42:17.471Z,10.43
2019-01-11T22:44:43.955Z,9.90
2019-01-11T22:47:10.513Z,9.47
2019-01-11T22:49:36.961Z,11.13
2019-01-11T22:52:04.568Z,10.77
2019-01-11T22:54:31.029Z,9.70
2019-01-11T22:56:57.473Z,9.70
2019-01-11T22:59:23.843Z,11.43
2019-01-11T23:01:55.422Z,13.07
2019-01-11T23:04:21.936Z,11.47
2019-01-11T23:06:56.641Z,12.53
2019-01-11T23:09:24.381Z,12.70
2019-01-11T23:12:01.048Z,12.20
2019-01-11T23:14:27.433Z,11.73
2019-01-11T23:17:25.550Z,12.80
2019-01-11T23:19:52.221Z,13.67
2019-01-11T23:22:23.316Z,13.47
2019-01-11T23:24:52.812Z,13.43
2019-01-11T23:27:19.533Z,16.43
2019-01-11T23:29:46.167Z,15.63
2019-01-11T23:32:12.890Z,13.83
2019-01-11T23:34:39.830Z,14.73
2019-01-11T23:37:12.599Z,15.27
2019-01-11T23:39:47.631Z,14.60
2019-01-11T23:42:16.391Z,15.00
2019-01-11T23:44:42.818Z,13.33
2019-01-11T23:47:09.548Z,15.73
2019-01-11T23:49:36.142Z,14.60
2019-01-11T23:52:02.551Z,19.60
2019-01-11T23:54:28.917Z,12.53
2019-01-11T23:56:55.442Z,13.37
2019-01-11T23:59:21.823Z,13.53
